Airfield :
LOGIN :

Register | Disclaimer

   EN    FR    IT 

 










Legend :    VFR   Marginal VFR   IFR   Intensive IFR   Very Intensive IFR
Visi :
Ceiling :
>= 8 km
>= 3000ft
5 to 8 km
1000 to 3000 ft
1500m to 5 km
500 to 1000 ft
800 to 1500m
200 to 500 ft
< 800m
< 200 ft
Symbols :   Thunderstorms  Fog  Heavy snow  Heavy precipitations  Wind > 20 kt
SIGMETs :     Misc.  Thunderstorms  Icing  Turbulence  Mountain Waves  Volcanic Ashes






- Airport Elevation : 202 ft
- IATA code : LGW


EGKK - London Gatwick

CURRENT METAR :
  • 250420Z VRB02KT 9999 SCT036 08/07 Q1018

EXPIRED METARs :
  • 250350Z 09003KT 9999 SCT036 07/06 Q1018
  • 250320Z 07001KT 9999 SCT036 08/07 Q1018
  • 250250Z 10002KT 9999 FEW036 07/07 Q1019
  • 250220Z VRB02KT CAVOK 08/07 Q1019
  • 250150Z 00000KT 9999 FEW042 09/07 Q1019
  • 250120Z VRB01KT 9999 BKN042 10/07 Q1019
  • 250050Z VRB01KT 9999 BKN042 10/07 Q1019
  • 250020Z VRB01KT 9999 FEW043 11/07 Q1019
  • 242350Z 24002KT 9999 BKN042 12/07 Q1019

TAF AMD TAF EGKK
Valid from the 25 at 03:00 until the 26 at 06:00 UTC


250255Z 2503/2606 11003KT 9999 FEW035
TEMPO 2503/2508 5000 BR MIFG
PROB30 2503/2507 0300 FG BKN001
TEMPO 2521/2606 7000 RA
TEMPO 2603/2606 BKN012
PROB30
TEMPO 2603/2606 3000 +RA BKN008



MET'MAP, your aeronautical weather chart ! - Copyright ORBIFLY December 2007 - Disclaimer

ORBIFLY MET'MAP TEAM :

Programming & Development : Alexandra Zaïnal
Original concept : Baudouin d'Aumeries
Technical & hardware support : Manuel Goepfert
Assistance : Marc-Olivier Méhu




SOURCES & CREDITS :

   NOAA